sensor_id;sensor_type;location;lat;lon;timestamp;temperature;humidity
5796;DHT22;2924;51.458;7.046;2023-07-31T00:01:20;15.30;99.90
5796;DHT22;2924;51.458;7.046;2023-07-31T00:03:46;15.30;99.90
5796;DHT22;2924;51.458;7.046;2023-07-31T00:06:12;15.30;99.90
5796;DHT22;2924;51.458;7.046;2023-07-31T00:08:38;15.30;99.90
5796;DHT22;2924;51.458;7.046;2023-07-31T00:11:03;15.30;99.90
5796;DHT22;2924;51.458;7.046;2023-07-31T00:13:29;15.30;99.90
5796;DHT22;2924;51.458;7.046;2023-07-31T00:15:55;15.30;99.90
5796;DHT22;2924;51.458;7.046;2023-07-31T00:18:20;15.30;99.90
5796;DHT22;2924;51.458;7.046;2023-07-31T00:20:46;15.30;99.90
5796;DHT22;2924;51.458;7.046;2023-07-31T00:23:11;15.30;99.90
5796;DHT22;2924;51.458;7.046;2023-07-31T00:25:37;15.30;99.90
5796;DHT22;2924;51.458;7.046;2023-07-31T00:28:03;15.30;99.90
5796;DHT22;2924;51.458;7.046;2023-07-31T00:30:28;15.30;99.90
5796;DHT22;2924;51.458;7.046;2023-07-31T00:32:54;15.20;99.90
5796;DHT22;2924;51.458;7.046;2023-07-31T00:35:19;15.30;99.90
5796;DHT22;2924;51.458;7.046;2023-07-31T00:37:45;15.20;99.90
5796;DHT22;2924;51.458;7.046;2023-07-31T00:40:10;15.30;99.90
5796;DHT22;2924;51.458;7.046;2023-07-31T00:42:36;15.30;99.90
5796;DHT22;2924;51.458;7.046;2023-07-31T00:45:02;15.30;99.90
5796;DHT22;2924;51.458;7.046;2023-07-31T00:47:27;15.30;99.90
5796;DHT22;2924;51.458;7.046;2023-07-31T00:49:53;15.30;99.90
5796;DHT22;2924;51.458;7.046;2023-07-31T00:52:19;15.30;99.90
5796;DHT22;2924;51.458;7.046;2023-07-31T00:54:45;15.30;99.90
5796;DHT22;2924;51.458;7.046;2023-07-31T00:57:11;15.30;99.90
5796;DHT22;2924;51.458;7.046;2023-07-31T00:59:36;15.20;99.90
5796;DHT22;2924;51.458;7.046;2023-07-31T01:02:02;15.30;99.90
5796;DHT22;2924;51.458;7.046;2023-07-31T01:04:42;15.30;99.90
5796;DHT22;2924;51.458;7.046;2023-07-31T01:07:14;15.30;99.90
5796;DHT22;2924;51.458;7.046;2023-07-31T01:10:11;15.30;99.90
5796;DHT22;2924;51.458;7.046;2023-07-31T01:12:39;15.30;99.90
5796;DHT22;2924;51.458;7.046;2023-07-31T01:15:06;15.30;99.90
5796;DHT22;2924;51.458;7.046;2023-07-31T01:17:32;15.20;99.90
5796;DHT22;2924;51.458;7.046;2023-07-31T01:20:02;15.30;99.90
5796;DHT22;2924;51.458;7.046;2023-07-31T01:31:05;15.30;99.90
5796;DHT22;2924;51.458;7.046;2023-07-31T01:33:32;15.30;99.90
5796;DHT22;2924;51.458;7.046;2023-07-31T01:35:58;15.20;99.90
5796;DHT22;2924;51.458;7.046;2023-07-31T01:38:24;15.30;99.90
5796;DHT22;2924;51.458;7.046;2023-07-31T01:40:53;15.30;99.90
5796;DHT22;2924;51.458;7.046;2023-07-31T01:43:19;15.30;99.90
5796;DHT22;2924;51.458;7.046;2023-07-31T01:45:44;15.30;99.90
5796;DHT22;2924;51.458;7.046;2023-07-31T01:48:10;15.30;99.90
5796;DHT22;2924;51.458;7.046;2023-07-31T01:50:35;15.20;99.90
5796;DHT22;2924;51.458;7.046;2023-07-31T01:53:01;15.30;99.90
5796;DHT22;2924;51.458;7.046;2023-07-31T01:55:27;15.30;99.90
5796;DHT22;2924;51.458;7.046;2023-07-31T01:57:52;15.30;99.90
5796;DHT22;2924;51.458;7.046;2023-07-31T02:00:18;15.30;99.90
5796;DHT22;2924;51.458;7.046;2023-07-31T02:02:43;15.30;99.90
5796;DHT22;2924;51.458;7.046;2023-07-31T02:05:09;15.30;99.90
5796;DHT22;2924;51.458;7.046;2023-07-31T02:07:34;15.30;99.90
5796;DHT22;2924;51.458;7.046;2023-07-31T02:10:00;15.30;99.90
5796;DHT22;2924;51.458;7.046;2023-07-31T02:12:26;15.30;99.90
5796;DHT22;2924;51.458;7.046;2023-07-31T02:14:51;15.30;99.90
5796;DHT22;2924;51.458;7.046;2023-07-31T02:17:17;15.40;99.90
5796;DHT22;2924;51.458;7.046;2023-07-31T02:19:42;15.40;99.90
5796;DHT22;2924;51.458;7.046;2023-07-31T02:22:08;15.40;99.90
5796;DHT22;2924;51.458;7.046;2023-07-31T02:24:34;15.40;99.90
5796;DHT22;2924;51.458;7.046;2023-07-31T02:26:59;15.40;99.90
5796;DHT22;2924;51.458;7.046;2023-07-31T02:29:25;15.40;99.90
5796;DHT22;2924;51.458;7.046;2023-07-31T02:31:50;15.40;99.90
5796;DHT22;2924;51.458;7.046;2023-07-31T02:34:16;15.40;99.90
5796;DHT22;2924;51.458;7.046;2023-07-31T02:36:41;15.40;99.90
5796;DHT22;2924;51.458;7.046;2023-07-31T02:39:07;15.40;99.90
5796;DHT22;2924;51.458;7.046;2023-07-31T02:41:33;15.40;99.90
5796;DHT22;2924;51.458;7.046;2023-07-31T02:43:58;15.40;99.90
5796;DHT22;2924;51.458;7.046;2023-07-31T02:46:24;15.40;99.90
5796;DHT22;2924;51.458;7.046;2023-07-31T02:48:50;15.40;99.90
5796;DHT22;2924;51.458;7.046;2023-07-31T02:51:16;15.40;99.90
5796;DHT22;2924;51.458;7.046;2023-07-31T02:53:41;15.40;99.90
5796;DHT22;2924;51.458;7.046;2023-07-31T02:56:07;15.40;99.90
5796;DHT22;2924;51.458;7.046;2023-07-31T02:58:33;15.40;99.90
5796;DHT22;2924;51.458;7.046;2023-07-31T03:00:59;15.50;99.90
5796;DHT22;2924;51.458;7.046;2023-07-31T03:03:24;15.40;99.90
5796;DHT22;2924;51.458;7.046;2023-07-31T03:05:50;15.50;99.90
5796;DHT22;2924;51.458;7.046;2023-07-31T03:08:15;15.40;99.90
5796;DHT22;2924;51.458;7.046;2023-07-31T03:10:41;15.50;99.90
5796;DHT22;2924;51.458;7.046;2023-07-31T03:13:07;15.50;99.90
5796;DHT22;2924;51.458;7.046;2023-07-31T03:15:32;15.50;99.90
5796;DHT22;2924;51.458;7.046;2023-07-31T03:17:58;15.50;99.90
5796;DHT22;2924;51.458;7.046;2023-07-31T03:20:23;15.60;99.90
5796;DHT22;2924;51.458;7.046;2023-07-31T03:22:49;15.60;99.90
5796;DHT22;2924;51.458;7.046;2023-07-31T03:25:15;15.60;99.90
5796;DHT22;2924;51.458;7.046;2023-07-31T03:27:40;15.60;99.90
5796;DHT22;2924;51.458;7.046;2023-07-31T03:30:06;15.60;99.90
5796;DHT22;2924;51.458;7.046;2023-07-31T03:32:32;15.60;99.90
5796;DHT22;2924;51.458;7.046;2023-07-31T03:34:58;15.60;99.90
5796;DHT22;2924;51.458;7.046;2023-07-31T03:37:23;15.60;99.90
5796;DHT22;2924;51.458;7.046;2023-07-31T03:39:49;15.70;99.90
5796;DHT22;2924;51.458;7.046;2023-07-31T03:42:14;15.80;99.90
5796;DHT22;2924;51.458;7.046;2023-07-31T03:44:40;15.70;99.90
5796;DHT22;2924;51.458;7.046;2023-07-31T03:47:06;15.80;99.90
5796;DHT22;2924;51.458;7.046;2023-07-31T03:49:31;15.70;99.90
5796;DHT22;2924;51.458;7.046;2023-07-31T03:51:57;15.80;99.90
5796;DHT22;2924;51.458;7.046;2023-07-31T03:54:22;15.80;99.90
5796;DHT22;2924;51.458;7.046;2023-07-31T03:56:48;15.90;99.90
5796;DHT22;2924;51.458;7.046;2023-07-31T03:59:14;15.80;99.90
5796;DHT22;2924;51.458;7.046;2023-07-31T04:01:39;15.90;99.90
5796;DHT22;2924;51.458;7.046;2023-07-31T04:04:05;15.90;99.90
5796;DHT22;2924;51.458;7.046;2023-07-31T04:06:30;15.90;99.90
5796;DHT22;2924;51.458;7.046;2023-07-31T04:08:56;15.90;99.90
5796;DHT22;2924;51.458;7.046;2023-07-31T04:11:21;16.00;99.90
5796;DHT22;2924;51.458;7.046;2023-07-31T04:13:47;16.00;99.90
5796;DHT22;2924;51.458;7.046;2023-07-31T04:16:12;16.10;99.90
5796;DHT22;2924;51.458;7.046;2023-07-31T04:18:38;16.10;99.90
5796;DHT22;2924;51.458;7.046;2023-07-31T04:21:04;16.10;99.90
5796;DHT22;2924;51.458;7.046;2023-07-31T04:23:29;16.10;99.90
5796;DHT22;2924;51.458;7.046;2023-07-31T04:25:55;16.20;99.90
5796;DHT22;2924;51.458;7.046;2023-07-31T04:28:21;16.20;99.90
5796;DHT22;2924;51.458;7.046;2023-07-31T04:30:47;16.20;99.90
5796;DHT22;2924;51.458;7.046;2023-07-31T04:33:12;16.20;99.90
5796;DHT22;2924;51.458;7.046;2023-07-31T04:35:38;16.30;99.90
5796;DHT22;2924;51.458;7.046;2023-07-31T04:38:04;16.30;99.90
5796;DHT22;2924;51.458;7.046;2023-07-31T04:40:29;16.30;99.90
5796;DHT22;2924;51.458;7.046;2023-07-31T04:42:55;16.20;99.90
5796;DHT22;2924;51.458;7.046;2023-07-31T04:45:20;16.20;99.90
5796;DHT22;2924;51.458;7.046;2023-07-31T04:47:46;16.20;99.90
5796;DHT22;2924;51.458;7.046;2023-07-31T04:50:11;16.20;99.90
5796;DHT22;2924;51.458;7.046;2023-07-31T04:52:37;16.20;99.90
5796;DHT22;2924;51.458;7.046;2023-07-31T04:55:03;16.10;99.90
5796;DHT22;2924;51.458;7.046;2023-07-31T04:57:28;16.20;99.90
5796;DHT22;2924;51.458;7.046;2023-07-31T04:59:54;16.20;99.90
5796;DHT22;2924;51.458;7.046;2023-07-31T05:02:19;16.20;99.90
5796;DHT22;2924;51.458;7.046;2023-07-31T05:04:45;16.30;99.90
5796;DHT22;2924;51.458;7.046;2023-07-31T05:07:10;16.40;99.90
5796;DHT22;2924;51.458;7.046;2023-07-31T05:09:36;16.30;99.90
5796;DHT22;2924;51.458;7.046;2023-07-31T05:12:03;16.40;99.90
5796;DHT22;2924;51.458;7.046;2023-07-31T05:14:29;16.50;99.90
5796;DHT22;2924;51.458;7.046;2023-07-31T05:16:55;16.50;99.90
5796;DHT22;2924;51.458;7.046;2023-07-31T05:19:20;16.50;99.90
5796;DHT22;2924;51.458;7.046;2023-07-31T05:21:46;16.60;99.90
5796;DHT22;2924;51.458;7.046;2023-07-31T05:24:11;16.60;99.90
5796;DHT22;2924;51.458;7.046;2023-07-31T05:26:37;16.60;99.90
5796;DHT22;2924;51.458;7.046;2023-07-31T05:29:03;16.60;99.90
5796;DHT22;2924;51.458;7.046;2023-07-31T05:31:29;16.60;99.90
5796;DHT22;2924;51.458;7.046;2023-07-31T05:33:54;16.50;99.90
5796;DHT22;2924;51.458;7.046;2023-07-31T05:36:20;16.60;99.90
5796;DHT22;2924;51.458;7.046;2023-07-31T05:38:46;16.60;99.90
5796;DHT22;2924;51.458;7.046;2023-07-31T05:41:14;16.60;99.90
5796;DHT22;2924;51.458;7.046;2023-07-31T05:43:40;16.60;99.90
5796;DHT22;2924;51.458;7.046;2023-07-31T05:46:06;16.70;99.90
5796;DHT22;2924;51.458;7.046;2023-07-31T05:48:32;16.60;99.90
5796;DHT22;2924;51.458;7.046;2023-07-31T05:50:59;16.50;99.90
5796;DHT22;2924;51.458;7.046;2023-07-31T05:53:25;16.40;99.90
5796;DHT22;2924;51.458;7.046;2023-07-31T05:55:50;16.40;99.90
5796;DHT22;2924;51.458;7.046;2023-07-31T05:58:16;16.30;99.90
5796;DHT22;2924;51.458;7.046;2023-07-31T06:00:41;16.30;99.90
5796;DHT22;2924;51.458;7.046;2023-07-31T06:03:07;16.20;99.90
5796;DHT22;2924;51.458;7.046;2023-07-31T06:05:33;16.20;99.90
5796;DHT22;2924;51.458;7.046;2023-07-31T06:07:58;16.10;99.90
5796;DHT22;2924;51.458;7.046;2023-07-31T06:10:24;16.20;99.90
5796;DHT22;2924;51.458;7.046;2023-07-31T06:12:49;16.20;99.90
5796;DHT22;2924;51.458;7.046;2023-07-31T06:15:15;16.30;99.90
5796;DHT22;2924;51.458;7.046;2023-07-31T06:17:41;16.40;99.90
5796;DHT22;2924;51.458;7.046;2023-07-31T06:20:08;16.40;99.90
5796;DHT22;2924;51.458;7.046;2023-07-31T06:22:33;16.50;99.90
5796;DHT22;2924;51.458;7.046;2023-07-31T06:24:59;16.50;99.90
5796;DHT22;2924;51.458;7.046;2023-07-31T06:27:25;16.50;99.90
5796;DHT22;2924;51.458;7.046;2023-07-31T06:29:50;16.50;99.90
5796;DHT22;2924;51.458;7.046;2023-07-31T06:32:16;16.50;99.90
5796;DHT22;2924;51.458;7.046;2023-07-31T06:34:41;16.30;99.90
5796;DHT22;2924;51.458;7.046;2023-07-31T06:37:07;16.20;99.90
5796;DHT22;2924;51.458;7.046;2023-07-31T06:39:33;16.20;99.90
5796;DHT22;2924;51.458;7.046;2023-07-31T06:41:58;16.20;99.90
5796;DHT22;2924;51.458;7.046;2023-07-31T06:44:24;16.10;99.90
5796;DHT22;2924;51.458;7.046;2023-07-31T06:46:49;16.10;99.90
5796;DHT22;2924;51.458;7.046;2023-07-31T06:49:15;16.10;99.90
5796;DHT22;2924;51.458;7.046;2023-07-31T06:51:41;16.00;99.90
5796;DHT22;2924;51.458;7.046;2023-07-31T06:54:08;16.00;99.90
5796;DHT22;2924;51.458;7.046;2023-07-31T06:56:34;16.00;99.90
5796;DHT22;2924;51.458;7.046;2023-07-31T06:58:59;16.00;99.90
5796;DHT22;2924;51.458;7.046;2023-07-31T07:01:25;16.00;99.90
5796;DHT22;2924;51.458;7.046;2023-07-31T07:03:51;16.10;99.90
5796;DHT22;2924;51.458;7.046;2023-07-31T07:06:17;16.00;99.90
5796;DHT22;2924;51.458;7.046;2023-07-31T07:08:43;16.10;99.90
5796;DHT22;2924;51.458;7.046;2023-07-31T07:11:08;16.10;99.90
5796;DHT22;2924;51.458;7.046;2023-07-31T07:13:34;16.10;99.90
5796;DHT22;2924;51.458;7.046;2023-07-31T07:16:00;16.00;99.90
5796;DHT22;2924;51.458;7.046;2023-07-31T07:18:25;16.00;99.90
5796;DHT22;2924;51.458;7.046;2023-07-31T07:20:52;16.00;99.90
5796;DHT22;2924;51.458;7.046;2023-07-31T07:23:18;16.00;99.90
5796;DHT22;2924;51.458;7.046;2023-07-31T07:25:45;16.10;99.90
5796;DHT22;2924;51.458;7.046;2023-07-31T07:28:11;16.10;99.90
5796;DHT22;2924;51.458;7.046;2023-07-31T07:30:37;16.10;99.90
5796;DHT22;2924;51.458;7.046;2023-07-31T07:33:02;16.10;99.90
5796;DHT22;2924;51.458;7.046;2023-07-31T07:35:28;16.10;99.90
5796;DHT22;2924;51.458;7.046;2023-07-31T07:37:54;16.10;99.90
5796;DHT22;2924;51.458;7.046;2023-07-31T07:40:20;16.10;99.90
5796;DHT22;2924;51.458;7.046;2023-07-31T07:42:46;16.10;99.90
5796;DHT22;2924;51.458;7.046;2023-07-31T07:45:12;16.10;99.90
5796;DHT22;2924;51.458;7.046;2023-07-31T07:47:41;16.10;99.90
5796;DHT22;2924;51.458;7.046;2023-07-31T07:50:08;16.20;99.90
5796;DHT22;2924;51.458;7.046;2023-07-31T07:52:34;16.10;99.90
5796;DHT22;2924;51.458;7.046;2023-07-31T07:54:59;16.10;99.90
5796;DHT22;2924;51.458;7.046;2023-07-31T07:57:26;16.10;99.90
5796;DHT22;2924;51.458;7.046;2023-07-31T07:59:51;16.10;99.90
5796;DHT22;2924;51.458;7.046;2023-07-31T08:02:17;16.10;99.90
5796;DHT22;2924;51.458;7.046;2023-07-31T08:04:42;16.00;99.90
5796;DHT22;2924;51.458;7.046;2023-07-31T08:07:10;16.00;99.90
5796;DHT22;2924;51.458;7.046;2023-07-31T08:09:36;15.90;99.90
5796;DHT22;2924;51.458;7.046;2023-07-31T08:12:01;15.80;99.90
5796;DHT22;2924;51.458;7.046;2023-07-31T08:14:28;15.90;99.90
5796;DHT22;2924;51.458;7.046;2023-07-31T08:16:54;15.90;99.90
5796;DHT22;2924;51.458;7.046;2023-07-31T08:19:19;15.90;99.90
5796;DHT22;2924;51.458;7.046;2023-07-31T08:21:45;15.90;99.90
5796;DHT22;2924;51.458;7.046;2023-07-31T08:24:11;16.10;99.90
5796;DHT22;2924;51.458;7.046;2023-07-31T08:26:36;16.10;99.90
5796;DHT22;2924;51.458;7.046;2023-07-31T08:29:02;16.10;99.90
5796;DHT22;2924;51.458;7.046;2023-07-31T08:31:28;16.00;99.90
5796;DHT22;2924;51.458;7.046;2023-07-31T08:33:55;15.90;99.90
5796;DHT22;2924;51.458;7.046;2023-07-31T08:36:20;16.00;99.90
5796;DHT22;2924;51.458;7.046;2023-07-31T08:38:46;16.10;99.90
5796;DHT22;2924;51.458;7.046;2023-07-31T08:41:12;16.00;99.90
5796;DHT22;2924;51.458;7.046;2023-07-31T08:43:39;16.00;99.90
5796;DHT22;2924;51.458;7.046;2023-07-31T08:46:05;16.10;99.90
5796;DHT22;2924;51.458;7.046;2023-07-31T08:48:31;16.10;99.90
5796;DHT22;2924;51.458;7.046;2023-07-31T08:50:58;16.10;99.90
5796;DHT22;2924;51.458;7.046;2023-07-31T08:53:24;16.20;99.90
5796;DHT22;2924;51.458;7.046;2023-07-31T08:55:50;16.30;99.90
5796;DHT22;2924;51.458;7.046;2023-07-31T08:58:17;16.20;99.90
5796;DHT22;2924;51.458;7.046;2023-07-31T09:00:46;16.10;99.90
5796;DHT22;2924;51.458;7.046;2023-07-31T09:03:17;16.20;99.90
5796;DHT22;2924;51.458;7.046;2023-07-31T09:05:46;16.20;99.90
5796;DHT22;2924;51.458;7.046;2023-07-31T09:08:14;16.20;99.90
5796;DHT22;2924;51.458;7.046;2023-07-31T09:10:42;16.20;99.90
5796;DHT22;2924;51.458;7.046;2023-07-31T09:13:09;16.10;99.90
5796;DHT22;2924;51.458;7.046;2023-07-31T09:15:36;16.10;99.90
5796;DHT22;2924;51.458;7.046;2023-07-31T09:18:03;16.10;99.90
5796;DHT22;2924;51.458;7.046;2023-07-31T09:20:29;16.00;99.90
5796;DHT22;2924;51.458;7.046;2023-07-31T09:22:55;16.10;99.90
5796;DHT22;2924;51.458;7.046;2023-07-31T09:25:25;16.10;99.90
5796;DHT22;2924;51.458;7.046;2023-07-31T09:27:59;16.10;99.90
5796;DHT22;2924;51.458;7.046;2023-07-31T09:30:25;16.10;99.90
5796;DHT22;2924;51.458;7.046;2023-07-31T09:32:52;16.20;99.90
5796;DHT22;2924;51.458;7.046;2023-07-31T09:35:32;16.20;99.90
5796;DHT22;2924;51.458;7.046;2023-07-31T09:37:59;16.30;99.90
5796;DHT22;2924;51.458;7.046;2023-07-31T09:40:33;16.30;99.90
5796;DHT22;2924;51.458;7.046;2023-07-31T09:43:07;16.30;99.90
5796;DHT22;2924;51.458;7.046;2023-07-31T09:45:41;16.40;99.90
5796;DHT22;2924;51.458;7.046;2023-07-31T09:48:20;16.40;99.90
5796;DHT22;2924;51.458;7.046;2023-07-31T09:50:47;16.50;99.90
5796;DHT22;2924;51.458;7.046;2023-07-31T09:53:14;16.50;99.90
5796;DHT22;2924;51.458;7.046;2023-07-31T09:55:41;16.50;99.90
5796;DHT22;2924;51.458;7.046;2023-07-31T09:58:11;16.40;99.90
5796;DHT22;2924;51.458;7.046;2023-07-31T10:00:36;16.50;99.90
5796;DHT22;2924;51.458;7.046;2023-07-31T10:03:06;16.40;99.90
5796;DHT22;2924;51.458;7.046;2023-07-31T10:05:59;16.50;99.90
5796;DHT22;2924;51.458;7.046;2023-07-31T10:08:31;16.60;99.90
5796;DHT22;2924;51.458;7.046;2023-07-31T10:11:01;16.40;99.90
5796;DHT22;2924;51.458;7.046;2023-07-31T10:13:28;16.50;99.90
5796;DHT22;2924;51.458;7.046;2023-07-31T10:15:54;16.40;99.90
5796;DHT22;2924;51.458;7.046;2023-07-31T10:18:24;16.40;99.90
5796;DHT22;2924;51.458;7.046;2023-07-31T10:20:50;16.40;99.90
5796;DHT22;2924;51.458;7.046;2023-07-31T10:23:16;16.40;99.90
5796;DHT22;2924;51.458;7.046;2023-07-31T10:25:42;16.40;99.90
5796;DHT22;2924;51.458;7.046;2023-07-31T10:28:08;16.40;99.90
5796;DHT22;2924;51.458;7.046;2023-07-31T10:30:34;16.30;99.90
5796;DHT22;2924;51.458;7.046;2023-07-31T10:33:03;16.40;99.90
5796;DHT22;2924;51.458;7.046;2023-07-31T10:35:30;16.40;99.90
5796;DHT22;2924;51.458;7.046;2023-07-31T10:37:55;16.40;99.90
5796;DHT22;2924;51.458;7.046;2023-07-31T10:40:26;16.50;99.90
5796;DHT22;2924;51.458;7.046;2023-07-31T10:42:55;16.50;99.90
5796;DHT22;2924;51.458;7.046;2023-07-31T10:45:38;16.50;99.90
5796;DHT22;2924;51.458;7.046;2023-07-31T10:48:15;16.50;99.90
5796;DHT22;2924;51.458;7.046;2023-07-31T10:50:51;16.50;99.90
5796;DHT22;2924;51.458;7.046;2023-07-31T10:53:31;16.40;99.90
5796;DHT22;2924;51.458;7.046;2023-07-31T10:56:04;16.50;99.90
5796;DHT22;2924;51.458;7.046;2023-07-31T10:58:31;16.50;99.90
5796;DHT22;2924;51.458;7.046;2023-07-31T11:01:03;16.60;99.90
5796;DHT22;2924;51.458;7.046;2023-07-31T11:06:08;16.80;99.90
5796;DHT22;2924;51.458;7.046;2023-07-31T11:08:34;16.80;99.90
5796;DHT22;2924;51.458;7.046;2023-07-31T11:15:55;17.30;99.90
5796;DHT22;2924;51.458;7.046;2023-07-31T11:18:20;17.40;99.90
5796;DHT22;2924;51.458;7.046;2023-07-31T11:20:46;17.60;99.90
5796;DHT22;2924;51.458;7.046;2023-07-31T11:23:15;17.60;99.90
5796;DHT22;2924;51.458;7.046;2023-07-31T11:25:40;17.80;99.90
5796;DHT22;2924;51.458;7.046;2023-07-31T11:28:11;18.00;99.90
5796;DHT22;2924;51.458;7.046;2023-07-31T11:30:37;18.10;99.90
5796;DHT22;2924;51.458;7.046;2023-07-31T11:33:05;18.10;99.90
5796;DHT22;2924;51.458;7.046;2023-07-31T11:35:32;18.10;99.90
5796;DHT22;2924;51.458;7.046;2023-07-31T11:37:58;18.10;99.90
5796;DHT22;2924;51.458;7.046;2023-07-31T11:40:24;18.20;99.90
5796;DHT22;2924;51.458;7.046;2023-07-31T11:42:58;18.30;99.90
5796;DHT22;2924;51.458;7.046;2023-07-31T11:45:27;18.50;99.90
5796;DHT22;2924;51.458;7.046;2023-07-31T11:47:55;18.70;99.90
5796;DHT22;2924;51.458;7.046;2023-07-31T11:50:21;18.80;99.90
5796;DHT22;2924;51.458;7.046;2023-07-31T11:52:48;18.90;99.90
5796;DHT22;2924;51.458;7.046;2023-07-31T11:55:15;19.00;99.90
5796;DHT22;2924;51.458;7.046;2023-07-31T11:57:43;19.20;99.90
5796;DHT22;2924;51.458;7.046;2023-07-31T12:00:10;19.40;99.90
5796;DHT22;2924;51.458;7.046;2023-07-31T12:02:38;19.40;99.90
5796;DHT22;2924;51.458;7.046;2023-07-31T12:05:11;19.40;99.90
5796;DHT22;2924;51.458;7.046;2023-07-31T12:07:52;19.40;99.90
5796;DHT22;2924;51.458;7.046;2023-07-31T12:10:29;19.30;99.90
5796;DHT22;2924;51.458;7.046;2023-07-31T12:13:06;19.20;99.90
5796;DHT22;2924;51.458;7.046;2023-07-31T12:15:37;19.00;99.90
5796;DHT22;2924;51.458;7.046;2023-07-31T12:18:14;18.80;99.90
5796;DHT22;2924;51.458;7.046;2023-07-31T12:20:44;18.70;99.90
5796;DHT22;2924;51.458;7.046;2023-07-31T12:23:31;18.50;99.90
5796;DHT22;2924;51.458;7.046;2023-07-31T12:26:12;18.40;99.90
5796;DHT22;2924;51.458;7.046;2023-07-31T12:28:42;18.10;99.90
5796;DHT22;2924;51.458;7.046;2023-07-31T12:31:10;17.90;99.90
5796;DHT22;2924;51.458;7.046;2023-07-31T12:33:38;17.80;99.90
5796;DHT22;2924;51.458;7.046;2023-07-31T12:36:10;17.80;99.90
5796;DHT22;2924;51.458;7.046;2023-07-31T12:38:36;17.70;99.90
5796;DHT22;2924;51.458;7.046;2023-07-31T12:41:01;17.60;99.90
5796;DHT22;2924;51.458;7.046;2023-07-31T12:43:27;17.70;99.90
5796;DHT22;2924;51.458;7.046;2023-07-31T12:45:54;17.80;99.90
5796;DHT22;2924;51.458;7.046;2023-07-31T12:48:21;17.90;99.90
5796;DHT22;2924;51.458;7.046;2023-07-31T12:50:46;18.00;99.90
5796;DHT22;2924;51.458;7.046;2023-07-31T12:53:12;18.10;99.90
5796;DHT22;2924;51.458;7.046;2023-07-31T12:55:38;18.30;99.90
5796;DHT22;2924;51.458;7.046;2023-07-31T12:58:03;18.40;99.90
5796;DHT22;2924;51.458;7.046;2023-07-31T13:00:29;18.40;99.90
5796;DHT22;2924;51.458;7.046;2023-07-31T13:02:55;18.50;99.90
5796;DHT22;2924;51.458;7.046;2023-07-31T13:05:21;18.50;99.90
5796;DHT22;2924;51.458;7.046;2023-07-31T13:07:47;18.30;99.90
5796;DHT22;2924;51.458;7.046;2023-07-31T13:10:13;18.20;99.90
5796;DHT22;2924;51.458;7.046;2023-07-31T13:12:38;18.10;99.90
5796;DHT22;2924;51.458;7.046;2023-07-31T13:15:05;18.00;99.90
5796;DHT22;2924;51.458;7.046;2023-07-31T13:17:31;17.80;99.90
5796;DHT22;2924;51.458;7.046;2023-07-31T13:19:57;17.80;99.90
5796;DHT22;2924;51.458;7.046;2023-07-31T13:22:22;17.80;99.90
5796;DHT22;2924;51.458;7.046;2023-07-31T13:24:48;17.90;99.90
5796;DHT22;2924;51.458;7.046;2023-07-31T13:27:14;18.00;99.90
5796;DHT22;2924;51.458;7.046;2023-07-31T13:29:43;18.10;99.90
5796;DHT22;2924;51.458;7.046;2023-07-31T13:32:09;18.20;99.90
5796;DHT22;2924;51.458;7.046;2023-07-31T13:34:34;18.40;99.90
5796;DHT22;2924;51.458;7.046;2023-07-31T13:37:00;18.40;99.90
5796;DHT22;2924;51.458;7.046;2023-07-31T13:39:25;18.40;99.90
5796;DHT22;2924;51.458;7.046;2023-07-31T13:41:51;18.40;99.90
5796;DHT22;2924;51.458;7.046;2023-07-31T13:44:16;18.50;99.90
5796;DHT22;2924;51.458;7.046;2023-07-31T13:46:42;18.50;99.90
5796;DHT22;2924;51.458;7.046;2023-07-31T13:49:07;18.60;99.90
5796;DHT22;2924;51.458;7.046;2023-07-31T13:51:33;18.70;99.90
5796;DHT22;2924;51.458;7.046;2023-07-31T13:53:59;18.80;99.90
5796;DHT22;2924;51.458;7.046;2023-07-31T13:56:24;18.80;99.90
5796;DHT22;2924;51.458;7.046;2023-07-31T13:58:50;18.80;99.90
5796;DHT22;2924;51.458;7.046;2023-07-31T14:01:16;18.90;99.90
5796;DHT22;2924;51.458;7.046;2023-07-31T14:03:41;18.90;99.90
5796;DHT22;2924;51.458;7.046;2023-07-31T14:06:07;18.80;99.90
5796;DHT22;2924;51.458;7.046;2023-07-31T14:08:32;18.90;99.90
5796;DHT22;2924;51.458;7.046;2023-07-31T14:10:58;19.20;99.90
5796;DHT22;2924;51.458;7.046;2023-07-31T14:13:23;19.40;99.90
5796;DHT22;2924;51.458;7.046;2023-07-31T14:15:49;19.60;99.90
5796;DHT22;2924;51.458;7.046;2023-07-31T14:18:14;19.80;99.90
5796;DHT22;2924;51.458;7.046;2023-07-31T14:20:40;20.10;99.90
5796;DHT22;2924;51.458;7.046;2023-07-31T14:23:06;20.20;99.90
5796;DHT22;2924;51.458;7.046;2023-07-31T14:25:31;20.40;99.90
5796;DHT22;2924;51.458;7.046;2023-07-31T14:27:57;20.50;99.90
5796;DHT22;2924;51.458;7.046;2023-07-31T14:30:22;20.60;99.90
5796;DHT22;2924;51.458;7.046;2023-07-31T14:32:48;20.60;99.90
5796;DHT22;2924;51.458;7.046;2023-07-31T14:35:14;20.30;99.90
5796;DHT22;2924;51.458;7.046;2023-07-31T14:37:41;20.00;99.90
5796;DHT22;2924;51.458;7.046;2023-07-31T14:40:08;19.80;99.90
5796;DHT22;2924;51.458;7.046;2023-07-31T14:42:34;19.60;99.90
5796;DHT22;2924;51.458;7.046;2023-07-31T14:45:00;19.40;99.90
5796;DHT22;2924;51.458;7.046;2023-07-31T14:47:26;19.30;99.90
5796;DHT22;2924;51.458;7.046;2023-07-31T14:49:51;19.10;99.90
5796;DHT22;2924;51.458;7.046;2023-07-31T14:52:17;19.00;99.90
5796;DHT22;2924;51.458;7.046;2023-07-31T14:54:43;18.90;99.90
5796;DHT22;2924;51.458;7.046;2023-07-31T14:57:08;18.80;99.90
5796;DHT22;2924;51.458;7.046;2023-07-31T14:59:34;18.60;99.90
5796;DHT22;2924;51.458;7.046;2023-07-31T15:01:59;18.50;99.90
5796;DHT22;2924;51.458;7.046;2023-07-31T15:04:25;18.30;99.90
5796;DHT22;2924;51.458;7.046;2023-07-31T15:06:52;18.20;99.90
5796;DHT22;2924;51.458;7.046;2023-07-31T15:09:18;18.10;99.90
5796;DHT22;2924;51.458;7.046;2023-07-31T15:11:43;18.00;99.90
5796;DHT22;2924;51.458;7.046;2023-07-31T15:14:09;17.90;99.90
5796;DHT22;2924;51.458;7.046;2023-07-31T15:16:34;17.80;99.90
5796;DHT22;2924;51.458;7.046;2023-07-31T15:19:00;17.80;99.90
5796;DHT22;2924;51.458;7.046;2023-07-31T15:21:26;17.80;99.90
5796;DHT22;2924;51.458;7.046;2023-07-31T15:23:52;17.80;99.90
5796;DHT22;2924;51.458;7.046;2023-07-31T15:26:18;17.80;99.90
5796;DHT22;2924;51.458;7.046;2023-07-31T15:28:49;17.90;99.90
5796;DHT22;2924;51.458;7.046;2023-07-31T15:31:20;17.90;99.90
5796;DHT22;2924;51.458;7.046;2023-07-31T15:38:56;18.10;99.90
5796;DHT22;2924;51.458;7.046;2023-07-31T15:41:21;18.20;99.90
5796;DHT22;2924;51.458;7.046;2023-07-31T15:43:47;18.20;99.90
5796;DHT22;2924;51.458;7.046;2023-07-31T15:46:13;18.30;99.90
5796;DHT22;2924;51.458;7.046;2023-07-31T15:48:39;18.30;99.90
5796;DHT22;2924;51.458;7.046;2023-07-31T15:51:04;18.40;99.90
5796;DHT22;2924;51.458;7.046;2023-07-31T15:53:30;18.50;99.90
5796;DHT22;2924;51.458;7.046;2023-07-31T15:55:57;18.60;99.90
5796;DHT22;2924;51.458;7.046;2023-07-31T15:58:23;18.60;99.90
5796;DHT22;2924;51.458;7.046;2023-07-31T16:00:48;18.70;99.90
5796;DHT22;2924;51.458;7.046;2023-07-31T16:03:14;18.70;99.90
5796;DHT22;2924;51.458;7.046;2023-07-31T16:05:40;18.80;99.90
5796;DHT22;2924;51.458;7.046;2023-07-31T16:08:06;18.80;99.90
5796;DHT22;2924;51.458;7.046;2023-07-31T16:10:32;18.70;99.90
5796;DHT22;2924;51.458;7.046;2023-07-31T16:12:58;18.50;99.90
5796;DHT22;2924;51.458;7.046;2023-07-31T16:15:23;18.30;99.90
5796;DHT22;2924;51.458;7.046;2023-07-31T16:17:49;18.10;99.90
5796;DHT22;2924;51.458;7.046;2023-07-31T16:20:14;17.70;99.90